createdAt,value
2017-04-24T00:00:14.490Z,7.73
2017-04-24T00:00:36.308Z,7.70
2017-04-24T00:01:02.879Z,7.65
2017-04-24T00:01:24.704Z,7.65
2017-04-24T00:02:00.751Z,7.73
2017-04-24T00:02:23.414Z,7.71
2017-04-24T00:02:45.116Z,7.73
2017-04-24T00:03:16.386Z,7.75
2017-04-24T00:03:38.196Z,7.66
2017-04-24T00:03:59.977Z,7.55
2017-04-24T00:04:31.208Z,7.58
2017-04-24T00:04:53.021Z,7.58
2017-04-24T00:05:14.730Z,7.62
2017-04-24T00:05:45.972Z,7.67
2017-04-24T00:06:07.791Z,7.63
2017-04-24T00:06:29.505Z,7.59
2017-04-24T00:07:00.772Z,7.60
2017-04-24T00:07:22.564Z,7.61
2017-04-24T00:07:49.052Z,7.64
2017-04-24T00:08:10.754Z,7.65
2017-04-24T00:08:32.480Z,7.59
2017-04-24T00:08:54.274Z,7.51
2017-04-24T00:09:15.983Z,7.49
2017-04-24T00:09:37.679Z,7.46
2017-04-24T00:09:59.385Z,7.51
2017-04-24T00:10:21.162Z,7.51
2017-04-24T00:10:47.650Z,7.48
2017-04-24T00:11:09.371Z,7.47
2017-04-24T00:12:11.975Z,7.53
2017-04-24T00:12:33.665Z,7.62
2017-04-24T00:12:55.361Z,7.70
2017-04-24T00:13:17.073Z,7.71
2017-04-24T00:13:38.869Z,7.74
2017-04-24T00:14:00.564Z,7.81
2017-04-24T00:14:31.813Z,7.81
2017-04-24T00:14:53.605Z,7.78
2017-04-24T00:15:20.155Z,7.68
2017-04-24T00:15:41.877Z,7.71
2017-04-24T00:16:03.583Z,7.77
2017-04-24T00:16:39.602Z,7.70
2017-04-24T00:17:01.964Z,7.66
2017-04-24T00:18:04.543Z,7.53
2017-04-24T00:18:26.329Z,7.44
2017-04-24T00:19:02.363Z,7.40
2017-04-24T00:19:24.810Z,7.30
2017-04-24T00:19:51.291Z,7.33
2017-04-24T00:20:27.322Z,7.38
2017-04-24T00:20:49.690Z,7.36
2017-04-24T00:21:20.938Z,7.42
2017-04-24T00:21:42.678Z,7.42
2017-04-24T00:22:09.238Z,7.50
2017-04-24T00:22:30.939Z,7.51
2017-04-24T00:22:52.645Z,7.53
2017-04-24T00:23:28.680Z,7.51
2017-04-24T00:23:51.050Z,7.55
2017-04-24T00:24:22.302Z,7.65
2017-04-24T00:24:43.991Z,7.72
2017-04-24T00:25:13.449Z,7.76
2017-04-24T00:25:35.149Z,7.72
2017-04-24T00:25:56.845Z,7.76
2017-04-24T00:26:18.551Z,7.84
2017-04-24T00:26:40.339Z,7.80
2017-04-24T00:27:06.831Z,7.74
2017-04-24T00:27:28.512Z,7.73
2017-04-24T00:27:59.768Z,7.68
2017-04-24T00:28:21.466Z,7.70
2017-04-24T00:28:52.719Z,7.65
2017-04-24T00:29:14.512Z,7.66
2017-04-24T00:29:41.020Z,7.61
2017-04-24T00:30:03.738Z,7.56
2017-04-24T00:30:25.528Z,7.61
2017-04-24T00:30:56.778Z,7.71
2017-04-24T00:31:18.468Z,7.72
2017-04-24T00:31:45.028Z,7.66
2017-04-24T00:32:06.732Z,7.67
2017-04-24T00:32:37.994Z,7.73
2017-04-24T00:32:59.817Z,7.73
2017-04-24T00:33:26.309Z,7.68
2017-04-24T00:33:47.998Z,7.68
2017-04-24T00:34:09.735Z,7.70
2017-04-24T00:34:31.527Z,7.67
2017-04-24T00:34:54.239Z,7.69
2017-04-24T00:35:20.720Z,7.75
2017-04-24T00:35:42.501Z,7.78
2017-04-24T00:36:04.210Z,7.69
2017-04-24T00:36:25.910Z,7.66
2017-04-24T00:36:47.641Z,7.67
2017-04-24T00:37:50.235Z,7.72
2017-04-24T00:38:21.485Z,7.65
2017-04-24T00:38:43.187Z,7.60
2017-04-24T00:39:14.487Z,7.51
2017-04-24T00:39:36.210Z,7.48
2017-04-24T00:39:57.903Z,7.43
2017-04-24T00:40:19.604Z,7.44
2017-04-24T00:40:41.403Z,7.46
2017-04-24T00:41:03.106Z,7.46
2017-04-24T00:41:24.803Z,7.50
2017-04-24T00:41:46.542Z,7.44
2017-04-24T00:42:13.123Z,7.41
2017-04-24T00:42:34.821Z,7.37
2017-04-24T00:42:56.584Z,7.37
2017-04-24T00:43:23.068Z,7.37
2017-04-24T00:43:44.854Z,7.33
2017-04-24T00:44:16.099Z,7.30
2017-04-24T00:44:37.803Z,7.37
2017-04-24T00:45:09.053Z,7.43
2017-04-24T00:45:30.762Z,7.43
2017-04-24T00:46:02.014Z,7.23
2017-04-24T00:46:23.800Z,7.23
2017-04-24T00:46:45.500Z,7.26
2017-04-24T00:47:21.532Z,7.27
2017-04-24T00:47:43.917Z,7.28
2017-04-24T00:48:15.172Z,7.15
2017-04-24T00:48:36.909Z,7.16
2017-04-24T00:49:08.233Z,7.20
2017-04-24T00:49:29.937Z,7.09
2017-04-24T00:50:01.206Z,6.95
2017-04-24T00:50:23.023Z,6.87
2017-04-24T00:50:54.276Z,6.86
2017-04-24T00:51:15.998Z,6.81
2017-04-24T00:51:37.800Z,6.80
2017-04-24T00:52:09.043Z,6.87
2017-04-24T00:52:30.769Z,6.85
2017-04-24T00:53:36.081Z,6.79
2017-04-24T00:53:57.776Z,6.78
2017-04-24T00:54:24.251Z,6.84
2017-04-24T00:54:45.943Z,6.87
2017-04-24T00:55:17.284Z,6.94
2017-04-24T00:55:39.021Z,6.93
2017-04-24T00:56:00.741Z,6.85
2017-04-24T00:56:27.292Z,6.90
2017-04-24T00:56:48.972Z,7.03
2017-04-24T00:57:10.710Z,7.12
2017-04-24T00:57:46.732Z,7.16
2017-04-24T00:58:09.129Z,7.15
2017-04-24T00:59:11.717Z,7.14
2017-04-24T00:59:33.429Z,7.02
2017-04-24T00:59:55.137Z,7.01
2017-04-24T01:00:16.840Z,7.01
2017-04-24T01:00:38.638Z,6.99
2017-04-24T01:01:45.928Z,7.07
2017-04-24T01:02:07.703Z,7.01
2017-04-24T01:02:29.409Z,7.07
2017-04-24T01:03:00.667Z,7.04
2017-04-24T01:03:22.455Z,7.13
2017-04-24T01:04:24.965Z,7.04
2017-04-24T01:05:00.992Z,7.13
2017-04-24T01:05:23.271Z,7.15
2017-04-24T01:05:54.528Z,7.12
2017-04-24T01:06:16.218Z,7.09
2017-04-24T01:06:38.009Z,7.13
2017-04-24T01:07:04.487Z,7.21
2017-04-24T01:07:26.179Z,7.13
2017-04-24T01:07:47.876Z,7.10
2017-04-24T01:08:19.211Z,7.04
2017-04-24T01:08:40.911Z,7.03
2017-04-24T01:09:02.612Z,7.00
2017-04-24T01:09:29.102Z,6.99
2017-04-24T01:09:50.922Z,7.03
2017-04-24T01:10:17.390Z,7.07
2017-04-24T01:10:39.110Z,7.15
2017-04-24T01:11:05.656Z,7.13
2017-04-24T01:11:27.368Z,7.06
2017-04-24T01:11:49.071Z,7.04
2017-04-24T01:12:10.772Z,6.92
2017-04-24T01:12:32.561Z,6.90
2017-04-24T01:12:54.330Z,6.91
2017-04-24T01:13:30.356Z,6.98
2017-04-24T01:13:52.724Z,6.95
2017-04-24T01:14:14.419Z,7.03
2017-04-24T01:14:50.448Z,7.14
2017-04-24T01:15:12.842Z,7.05
2017-04-24T01:15:34.546Z,6.96
2017-04-24T01:16:10.567Z,7.00
2017-04-24T01:16:32.955Z,6.90
2017-04-24T01:16:54.661Z,6.97
2017-04-24T01:18:02.085Z,6.97
2017-04-24T01:18:23.818Z,7.01
2017-04-24T01:18:59.849Z,7.12
2017-04-24T01:19:22.207Z,7.08
2017-04-24T01:20:29.487Z,6.86
2017-04-24T01:20:51.266Z,6.85
2017-04-24T01:21:12.960Z,6.92
2017-04-24T01:21:39.456Z,7.05
2017-04-24T01:22:01.245Z,7.10
2017-04-24T01:22:27.726Z,7.10
2017-04-24T01:22:49.418Z,7.07
2017-04-24T01:23:20.755Z,7.07
2017-04-24T01:23:42.470Z,7.12
2017-04-24T01:24:13.769Z,7.08
2017-04-24T01:24:35.474Z,7.09
2017-04-24T01:25:06.731Z,6.91
2017-04-24T01:25:28.439Z,6.91
2017-04-24T01:25:59.697Z,6.97
2017-04-24T01:26:21.388Z,6.93
2017-04-24T01:26:52.636Z,6.86
2017-04-24T01:27:14.436Z,6.85
2017-04-24T01:27:40.904Z,6.88
2017-04-24T01:28:02.611Z,6.94
2017-04-24T01:28:29.160Z,6.99
2017-04-24T01:28:50.850Z,6.95
2017-04-24T01:29:12.562Z,6.89
2017-04-24T01:29:39.058Z,6.86
2017-04-24T01:30:00.850Z,6.82
2017-04-24T01:30:22.569Z,6.79
2017-04-24T01:30:49.053Z,6.70
2017-04-24T01:31:10.840Z,6.65
2017-04-24T01:31:32.544Z,6.71
2017-04-24T01:32:08.583Z,6.77
2017-04-24T01:32:30.975Z,6.79
2017-04-24T01:33:07.019Z,6.89
2017-04-24T01:33:29.254Z,6.87
2017-04-24T01:33:51.048Z,6.85
2017-04-24T01:34:27.093Z,6.75
2017-04-24T01:34:49.369Z,6.68
2017-04-24T01:35:20.627Z,6.80
2017-04-24T01:35:42.332Z,6.82
2017-04-24T01:36:08.810Z,6.83
2017-04-24T01:36:30.533Z,6.75
2017-04-24T01:36:57.130Z,6.68
2017-04-24T01:37:18.821Z,6.75
2017-04-24T01:37:40.528Z,6.75
2017-04-24T01:38:16.565Z,6.65
2017-04-24T01:38:38.978Z,6.57
2017-04-24T01:39:05.477Z,6.53
2017-04-24T01:40:08.058Z,6.48
2017-04-24T01:40:29.759Z,6.43
2017-04-24T01:41:05.786Z,6.48
2017-04-24T01:41:28.138Z,6.54
2017-04-24T01:41:49.830Z,6.51
2017-04-24T01:42:25.870Z,6.54
2017-04-24T01:42:49.284Z,6.58
2017-04-24T01:43:20.552Z,6.62
2017-04-24T01:43:42.294Z,6.69
2017-04-24T01:44:04.089Z,6.66
2017-04-24T01:44:30.561Z,6.55
2017-04-24T01:44:52.288Z,6.53
2017-04-24T01:45:23.630Z,6.54
2017-04-24T01:45:45.330Z,6.66
2017-04-24T01:46:07.049Z,6.78
2017-04-24T01:46:33.525Z,6.78
2017-04-24T01:46:55.316Z,6.78
2017-04-24T01:47:17.023Z,6.76
2017-04-24T01:47:43.506Z,6.80
2017-04-24T01:48:05.229Z,6.81
2017-04-24T01:48:27.043Z,6.79
2017-04-24T01:48:53.524Z,6.80
2017-04-24T01:49:15.253Z,6.80
2017-04-24T01:50:22.627Z,6.60
2017-04-24T01:50:44.348Z,6.61
2017-04-24T01:51:06.078Z,6.58
2017-04-24T01:51:37.322Z,6.51
2017-04-24T01:51:59.018Z,6.57
2017-04-24T01:52:20.729Z,6.59
2017-04-24T01:52:47.226Z,6.59
2017-04-24T01:53:09.029Z,6.67
2017-04-24T01:53:30.752Z,6.81
2017-04-24T01:53:57.233Z,6.95
2017-04-24T01:54:19.012Z,6.88
2017-04-24T01:54:45.502Z,6.93
2017-04-24T01:55:07.192Z,7.00
2017-04-24T01:55:38.523Z,7.09
2017-04-24T01:56:00.214Z,7.13
2017-04-24T01:56:21.915Z,7.12
2017-04-24T01:56:48.396Z,7.07
2017-04-24T01:57:10.197Z,6.97
2017-04-24T01:57:31.896Z,6.87
2017-04-24T01:58:07.929Z,6.69
2017-04-24T01:58:30.295Z,6.61
2017-04-24T01:59:01.550Z,6.59
2017-04-24T01:59:23.255Z,6.73
2017-04-24T01:59:54.521Z,6.72
2017-04-24T02:00:16.233Z,6.71
2017-04-24T02:00:47.520Z,6.69
2017-04-24T02:01:09.348Z,6.70
2017-04-24T02:01:40.610Z,6.59
2017-04-24T02:02:02.319Z,6.56
2017-04-24T02:02:33.573Z,6.50
2017-04-24T02:02:55.271Z,6.54
2017-04-24T02:03:16.979Z,6.54
2017-04-24T02:03:38.686Z,6.62
2017-04-24T02:04:00.525Z,6.64
2017-04-24T02:04:31.763Z,6.71
2017-04-24T02:04:53.471Z,6.69
2017-04-24T02:05:29.507Z,6.67
2017-04-24T02:05:51.820Z,6.67
2017-04-24T02:06:23.080Z,6.54
2017-04-24T02:06:44.774Z,6.49
2017-04-24T02:07:06.593Z,6.49
2017-04-24T02:07:28.295Z,6.54
2017-04-24T02:07:50.003Z,6.59
2017-04-24T02:08:11.701Z,6.58
2017-04-24T02:08:38.278Z,6.58
2017-04-24T02:08:59.992Z,6.53
2017-04-24T02:09:21.703Z,6.47
2017-04-24T02:09:43.412Z,6.51
2017-04-24T02:10:05.124Z,6.56
2017-04-24T02:10:36.378Z,6.66
2017-04-24T02:10:58.076Z,6.67
2017-04-24T02:11:24.640Z,6.69
2017-04-24T02:11:46.345Z,6.60
2017-04-24T02:12:53.737Z,6.47
2017-04-24T02:13:15.524Z,6.47
2017-04-24T02:13:37.329Z,6.43
2017-04-24T02:13:59.130Z,6.38
2017-04-24T02:14:20.915Z,6.42
2017-04-24T02:14:47.477Z,6.41
2017-04-24T02:15:09.272Z,6.50
2017-04-24T02:15:40.516Z,6.60
2017-04-24T02:16:02.298Z,6.57
2017-04-24T02:16:28.854Z,6.59
2017-04-24T02:16:50.641Z,6.59
2017-04-24T02:17:12.444Z,6.63
2017-04-24T02:17:39.015Z,6.58
2017-04-24T02:18:00.725Z,6.58
2017-04-24T02:18:27.287Z,6.66
2017-04-24T02:18:48.985Z,6.67
2017-04-24T02:19:15.562Z,6.65
2017-04-24T02:19:37.371Z,6.58
2017-04-24T02:20:03.939Z,6.48
2017-04-24T02:20:25.729Z,6.47
2017-04-24T02:20:47.518Z,6.48
2017-04-24T02:21:14.059Z,6.55
2017-04-24T02:21:35.784Z,6.59
2017-04-24T02:22:02.284Z,6.58
2017-04-24T02:22:23.988Z,6.49
2017-04-24T02:22:50.557Z,6.35
2017-04-24T02:23:57.890Z,6.36
2017-04-24T02:24:19.659Z,6.38
2017-04-24T02:24:41.368Z,6.41
2017-04-24T02:25:03.152Z,6.36
2017-04-24T02:25:24.946Z,6.29
2017-04-24T02:25:46.701Z,6.21
2017-04-24T02:26:08.394Z,6.28
2017-04-24T02:26:30.116Z,6.26
2017-04-24T02:26:51.850Z,6.35
2017-04-24T02:27:13.568Z,6.39
2017-04-24T02:27:44.871Z,6.26
2017-04-24T02:28:11.488Z,6.11
2017-04-24T02:28:33.184Z,6.19
2017-04-24T02:28:54.920Z,6.14
2017-04-24T02:29:16.666Z,6.11
2017-04-24T02:29:38.408Z,6.19
2017-04-24T02:30:00.143Z,6.21
2017-04-24T02:30:21.870Z,6.16
2017-04-24T02:30:43.608Z,6.07
2017-04-24T02:31:05.359Z,6.06
2017-04-24T02:31:27.088Z,6.11
2017-04-24T02:31:48.874Z,6.20
2017-04-24T02:32:10.668Z,6.28
2017-04-24T02:32:32.431Z,6.18
2017-04-24T02:32:54.186Z,6.11
2017-04-24T02:33:15.923Z,6.14
2017-04-24T02:33:37.658Z,6.27
2017-04-24T02:33:59.412Z,6.25
2017-04-24T02:34:21.204Z,6.19
2017-04-24T02:34:42.999Z,6.16
2017-04-24T02:35:04.736Z,6.19
2017-04-24T02:35:26.510Z,6.16
2017-04-24T02:35:48.270Z,6.16
2017-04-24T02:36:10.071Z,6.24
2017-04-24T02:36:31.859Z,6.22
2017-04-24T02:36:53.620Z,6.17
2017-04-24T02:37:15.361Z,6.17
2017-04-24T02:37:37.102Z,6.14
2017-04-24T02:37:58.833Z,6.15
2017-04-24T02:38:20.590Z,6.09
2017-04-24T02:38:42.353Z,6.02
2017-04-24T02:39:04.214Z,6.06
2017-04-24T02:39:26.026Z,6.10
2017-04-24T02:39:47.797Z,6.05
2017-04-24T02:40:09.578Z,6.12
2017-04-24T02:40:31.300Z,6.23
2017-04-24T02:40:53.038Z,6.24
2017-04-24T02:41:14.763Z,6.18
2017-04-24T02:41:36.507Z,6.09
2017-04-24T02:41:58.232Z,6.08
2017-04-24T02:42:19.995Z,6.18
2017-04-24T02:42:41.751Z,6.15
2017-04-24T02:43:03.501Z,6.04
2017-04-24T02:43:25.286Z,6.06
2017-04-24T02:43:47.046Z,6.16
2017-04-24T02:44:08.780Z,6.27
2017-04-24T02:44:30.586Z,6.33
2017-04-24T02:44:52.354Z,6.32
2017-04-24T02:45:14.218Z,6.25
2017-04-24T02:45:35.969Z,6.11
2017-04-24T02:45:57.771Z,6.04
2017-04-24T02:46:19.548Z,6.06
2017-04-24T02:46:41.387Z,6.06
2017-04-24T02:47:03.193Z,6.19
2017-04-24T02:47:24.946Z,6.32
2017-04-24T02:47:46.691Z,6.24
2017-04-24T02:48:08.437Z,6.17
2017-04-24T02:48:30.207Z,6.12
2017-04-24T02:48:51.962Z,6.16
2017-04-24T02:49:13.712Z,6.22
2017-04-24T02:49:35.481Z,6.19
2017-04-24T02:49:57.386Z,6.18
2017-04-24T02:50:19.139Z,6.25
2017-04-24T02:50:40.913Z,6.28
2017-04-24T02:51:02.675Z,6.27
2017-04-24T02:51:24.399Z,6.31
2017-04-24T02:51:46.141Z,6.38
2017-04-24T02:52:07.893Z,6.33
2017-04-24T02:52:29.652Z,6.36
2017-04-24T02:52:51.398Z,6.35
2017-04-24T02:53:13.150Z,6.36
2017-04-24T02:53:34.920Z,6.40
2017-04-24T02:53:56.682Z,6.38
2017-04-24T02:54:18.400Z,6.26
2017-04-24T02:54:49.659Z,6.16
2017-04-24T02:55:11.443Z,6.13
2017-04-24T02:55:33.192Z,6.15
2017-04-24T02:56:04.581Z,6.18
2017-04-24T02:57:07.129Z,6.26
2017-04-24T02:57:28.900Z,6.25
2017-04-24T02:57:50.667Z,6.32
2017-04-24T02:58:12.472Z,6.29
2017-04-24T02:58:34.234Z,6.26
2017-04-24T02:58:55.945Z,6.27
2017-04-24T02:59:17.701Z,6.28
2017-04-24T02:59:39.414Z,6.23
2017-04-24T03:00:01.183Z,6.19
2017-04-24T03:00:22.926Z,6.21
2017-04-24T03:00:44.695Z,6.24
2017-04-24T03:01:06.432Z,6.21
2017-04-24T03:01:28.180Z,6.21
2017-04-24T03:01:49.940Z,6.36
2017-04-24T03:02:11.651Z,6.39
2017-04-24T03:02:33.442Z,6.39
2017-04-24T03:02:55.182Z,6.41
2017-04-24T03:03:16.897Z,6.35
2017-04-24T03:03:38.635Z,6.32
2017-04-24T03:04:00.354Z,6.28
2017-04-24T03:04:22.091Z,6.27
2017-04-24T03:04:43.841Z,6.27
2017-04-24T03:05:05.557Z,6.32
2017-04-24T03:05:27.322Z,6.37
2017-04-24T03:05:49.092Z,6.34
2017-04-24T03:06:10.831Z,6.23
2017-04-24T03:06:32.635Z,6.18
2017-04-24T03:06:54.397Z,6.14
2017-04-24T03:07:16.169Z,6.09
2017-04-24T03:07:37.909Z,6.06
2017-04-24T03:07:59.673Z,6.05
2017-04-24T03:08:21.420Z,6.02
2017-04-24T03:08:43.200Z,6.00
2017-04-24T03:09:04.956Z,6.02
2017-04-24T03:09:26.717Z,6.00
2017-04-24T03:09:48.480Z,5.92
2017-04-24T03:10:10.200Z,5.90
2017-04-24T03:10:31.990Z,6.03
2017-04-24T03:10:53.735Z,6.17
2017-04-24T03:11:15.534Z,6.17
2017-04-24T03:11:37.329Z,6.19
2017-04-24T03:11:59.179Z,6.24
2017-04-24T03:12:20.954Z,6.29
2017-04-24T03:12:42.751Z,6.28
2017-04-24T03:13:04.500Z,6.33
2017-04-24T03:13:26.258Z,6.39
2017-04-24T03:13:48.128Z,6.24
2017-04-24T03:14:50.701Z,6.02
2017-04-24T03:15:12.474Z,5.92
2017-04-24T03:15:34.412Z,5.83
2017-04-24T03:15:56.184Z,5.79
2017-04-24T03:16:17.922Z,5.79
2017-04-24T03:16:39.694Z,5.86
2017-04-24T03:17:01.448Z,5.95
2017-04-24T03:17:23.195Z,5.97
2017-04-24T03:17:44.967Z,5.99
2017-04-24T03:18:06.854Z,6.06
2017-04-24T03:18:28.563Z,6.16
2017-04-24T03:18:50.297Z,6.16
2017-04-24T03:19:12.067Z,6.19
2017-04-24T03:19:33.851Z,6.18
2017-04-24T03:19:55.642Z,6.15
2017-04-24T03:20:17.405Z,6.09
2017-04-24T03:20:39.226Z,5.99
2017-04-24T03:21:05.776Z,5.93
2017-04-24T03:22:08.280Z,6.07
2017-04-24T03:22:30.042Z,6.11
2017-04-24T03:22:51.813Z,6.11
2017-04-24T03:23:13.520Z,6.12
2017-04-24T03:23:35.354Z,6.06
2017-04-24T03:23:57.119Z,6.03
2017-04-24T03:24:18.915Z,5.92
2017-04-24T03:24:40.666Z,5.89
2017-04-24T03:25:16.710Z,5.89
2017-04-24T03:25:39.177Z,5.89
2017-04-24T03:26:10.572Z,6.07
2017-04-24T03:26:32.334Z,6.06
2017-04-24T03:27:08.376Z,6.25
2017-04-24T03:27:30.784Z,6.25
2017-04-24T03:27:52.563Z,6.24
2017-04-24T03:28:14.321Z,6.20
2017-04-24T03:28:36.099Z,6.16
2017-04-24T03:28:57.831Z,6.04
2017-04-24T03:29:19.563Z,5.98
2017-04-24T03:29:41.331Z,5.95
2017-04-24T03:30:03.066Z,5.98
2017-04-24T03:30:24.834Z,6.00
2017-04-24T03:30:46.559Z,5.98
2017-04-24T03:31:08.284Z,5.96
2017-04-24T03:31:30.040Z,6.02
2017-04-24T03:31:51.791Z,6.02
2017-04-24T03:32:13.594Z,6.09
2017-04-24T03:32:35.347Z,6.10
2017-04-24T03:32:57.135Z,6.09
2017-04-24T03:33:18.919Z,6.04
2017-04-24T03:33:40.621Z,6.09
2017-04-24T03:34:02.408Z,6.17
2017-04-24T03:34:24.167Z,6.24
2017-04-24T03:34:45.892Z,6.24
2017-04-24T03:35:07.598Z,6.21
2017-04-24T03:36:10.131Z,6.08
2017-04-24T03:36:31.813Z,6.07
2017-04-24T03:36:53.529Z,6.20
2017-04-24T03:37:56.050Z,6.27
2017-04-24T03:38:17.765Z,6.19
2017-04-24T03:38:39.501Z,6.14
2017-04-24T03:39:10.807Z,6.12
2017-04-24T03:39:32.507Z,6.16
2017-04-24T03:39:54.230Z,6.18
2017-04-24T03:40:15.928Z,6.16
2017-04-24T03:40:37.703Z,6.09
2017-04-24T03:41:13.744Z,5.90
2017-04-24T03:41:36.043Z,5.89
2017-04-24T03:41:57.827Z,5.82
2017-04-24T03:43:00.331Z,5.67
2017-04-24T03:43:36.365Z,5.54
2017-04-24T03:43:58.649Z,5.62
2017-04-24T03:44:25.136Z,5.60
2017-04-24T03:45:32.450Z,5.75
2017-04-24T03:45:54.147Z,5.65
2017-04-24T03:46:15.883Z,5.63
2017-04-24T03:46:47.210Z,5.69
2017-04-24T03:47:08.996Z,5.70
2017-04-24T03:47:30.703Z,5.72
2017-04-24T03:48:02.055Z,5.69
2017-04-24T03:48:23.765Z,5.61
2017-04-24T03:48:50.262Z,5.67
2017-04-24T03:49:11.928Z,5.65
2017-04-24T03:49:38.520Z,5.55
2017-04-24T03:50:00.229Z,5.68
2017-04-24T03:50:21.948Z,5.72
2017-04-24T03:50:48.495Z,5.85
2017-04-24T03:51:10.223Z,5.88
2017-04-24T03:51:34.173Z,5.72
2017-04-24T03:51:55.887Z,5.65
2017-04-24T03:52:17.675Z,5.58
2017-04-24T03:52:48.928Z,5.48
2017-04-24T03:53:10.636Z,5.48
2017-04-24T03:53:37.210Z,5.44
2017-04-24T03:53:58.938Z,5.43
2017-04-24T03:54:25.393Z,5.50
2017-04-24T03:54:47.099Z,5.52
2017-04-24T03:55:18.423Z,5.63
2017-04-24T03:55:40.115Z,5.70
2017-04-24T03:56:06.589Z,5.75
2017-04-24T03:56:42.623Z,5.85
2017-04-24T03:57:04.984Z,5.80
2017-04-24T03:57:26.745Z,5.74
2017-04-24T03:58:02.775Z,5.77
2017-04-24T03:58:25.153Z,5.77
2017-04-24T03:58:49.406Z,5.84
2017-04-24T03:59:20.744Z,5.87
2017-04-24T03:59:42.458Z,5.82
2017-04-24T04:00:04.198Z,5.68
2017-04-24T04:00:40.228Z,5.58
2017-04-24T04:01:07.496Z,5.56
2017-04-24T04:01:29.207Z,5.52
2017-04-24T04:01:50.912Z,5.53
2017-04-24T04:02:12.716Z,5.58
2017-04-24T04:02:39.198Z,5.70
2017-04-24T04:03:00.916Z,5.73
2017-04-24T04:03:22.711Z,5.75
2017-04-24T04:03:44.404Z,5.82
2017-04-24T04:04:06.117Z,5.80
2017-04-24T04:04:32.599Z,5.76
2017-04-24T04:04:54.416Z,5.78
2017-04-24T04:05:25.664Z,5.57
2017-04-24T04:05:47.389Z,5.55
2017-04-24T04:06:09.177Z,5.54
2017-04-24T04:06:40.420Z,5.55
2017-04-24T04:07:02.127Z,5.55
2017-04-24T04:07:23.955Z,5.59
2017-04-24T04:07:50.445Z,5.63
2017-04-24T04:08:12.181Z,5.64
2017-04-24T04:08:38.680Z,5.54
2017-04-24T04:09:00.389Z,5.40
2017-04-24T04:09:22.106Z,5.36
2017-04-24T04:09:43.816Z,5.50
2017-04-24T04:10:05.639Z,5.63
2017-04-24T04:10:27.343Z,5.69
2017-04-24T04:10:49.071Z,5.74
2017-04-24T04:11:10.789Z,5.61
2017-04-24T04:11:32.558Z,5.52
2017-04-24T04:11:54.273Z,5.51
2017-04-24T04:12:16.008Z,5.54
2017-04-24T04:12:37.696Z,5.59
2017-04-24T04:13:09.029Z,5.53
2017-04-24T04:13:30.735Z,5.55
2017-04-24T04:13:57.223Z,5.54
2017-04-24T04:14:18.917Z,5.49
2017-04-24T04:14:45.480Z,5.46
2017-04-24T04:15:07.194Z,5.52
2017-04-24T04:15:28.893Z,5.49
2017-04-24T04:15:55.355Z,5.59
2017-04-24T04:16:17.141Z,5.55
2017-04-24T04:16:38.856Z,5.67
2017-04-24T04:17:14.892Z,5.73
2017-04-24T04:17:37.203Z,5.81
2017-04-24T04:18:06.574Z,5.80
2017-04-24T04:18:28.279Z,5.70
2017-04-24T04:18:50.075Z,5.68
2017-04-24T04:19:16.546Z,5.67
2017-04-24T04:19:38.241Z,5.65
2017-04-24T04:20:04.814Z,5.47
2017-04-24T04:20:26.521Z,5.44
2017-04-24T04:20:53.019Z,5.50
2017-04-24T04:21:14.723Z,5.53
2017-04-24T04:21:41.289Z,5.56
2017-04-24T04:22:03.015Z,5.59
2017-04-24T04:22:34.277Z,5.46
2017-04-24T04:22:56.066Z,5.40
2017-04-24T04:23:22.548Z,5.16
2017-04-24T04:23:44.246Z,5.02
2017-04-24T04:24:05.969Z,5.10
2017-04-24T04:24:32.535Z,5.15
2017-04-24T04:24:54.260Z,5.11
2017-04-24T04:25:20.745Z,5.10
2017-04-24T04:25:42.463Z,5.07
2017-04-24T04:26:04.273Z,5.01
2017-04-24T04:26:30.754Z,4.98
2017-04-24T04:26:52.529Z,4.98
2017-04-24T04:27:19.110Z,4.93
2017-04-24T04:27:40.802Z,4.95
2017-04-24T04:28:02.512Z,5.02
2017-04-24T04:28:24.232Z,5.18
2017-04-24T04:28:46.011Z,5.23
2017-04-24T04:29:12.492Z,5.11
2017-04-24T04:29:34.233Z,5.12
2017-04-24T04:30:00.789Z,5.18
2017-04-24T04:30:22.502Z,5.16
2017-04-24T04:30:48.980Z,5.18
2017-04-24T04:31:10.694Z,5.24
2017-04-24T04:31:32.480Z,5.21
2017-04-24T04:31:58.955Z,5.08
2017-04-24T04:32:20.664Z,5.04
2017-04-24T04:32:47.217Z,5.03
2017-04-24T04:33:08.922Z,4.99
2017-04-24T04:33:30.629Z,5.06
2017-04-24T04:34:01.982Z,5.14
2017-04-24T04:34:23.686Z,5.07
2017-04-24T04:34:54.931Z,4.90
2017-04-24T04:35:16.730Z,4.90
2017-04-24T04:35:38.437Z,4.97
2017-04-24T04:36:00.150Z,4.98
2017-04-24T04:36:21.872Z,5.04
2017-04-24T04:36:43.692Z,5.12
2017-04-24T04:37:14.945Z,4.90
2017-04-24T04:37:36.644Z,4.90
2017-04-24T04:37:58.437Z,4.90
2017-04-24T04:38:20.145Z,4.94
2017-04-24T04:38:41.847Z,4.93
2017-04-24T04:39:13.169Z,5.02
2017-04-24T04:39:34.880Z,5.02
2017-04-24T04:39:56.573Z,4.93
2017-04-24T04:40:23.045Z,5.07
2017-04-24T04:40:44.818Z,5.14
2017-04-24T04:41:11.310Z,5.29
2017-04-24T04:41:33.009Z,5.36
2017-04-24T04:42:04.368Z,5.28
2017-04-24T04:42:26.073Z,5.33
2017-04-24T04:42:52.557Z,5.31
2017-04-24T04:43:14.258Z,5.26
2017-04-24T04:43:36.066Z,5.37
2017-04-24T04:44:02.549Z,5.36
2017-04-24T04:44:24.246Z,5.40
2017-04-24T04:44:45.989Z,5.28
2017-04-24T04:45:12.463Z,5.23
2017-04-24T04:45:34.166Z,5.19
2017-04-24T04:45:55.855Z,5.24
2017-04-24T04:46:22.430Z,5.35
2017-04-24T04:46:44.149Z,5.35
2017-04-24T04:47:06.391Z,5.44
2017-04-24T04:47:32.957Z,5.45
2017-04-24T04:47:54.756Z,5.39
2017-04-24T04:48:16.540Z,5.42
2017-04-24T04:48:47.796Z,5.41
2017-04-24T04:49:09.497Z,5.37
2017-04-24T04:50:16.868Z,5.36
2017-04-24T04:50:38.591Z,5.42
2017-04-24T04:51:00.298Z,5.47
2017-04-24T04:51:26.779Z,5.48
2017-04-24T04:51:48.587Z,5.51
2017-04-24T04:52:15.079Z,5.44
2017-04-24T04:52:37.791Z,5.39
2017-04-24T04:53:04.320Z,5.45
2017-04-24T04:53:26.030Z,5.46
2017-04-24T04:53:52.515Z,5.49
2017-04-24T04:54:14.211Z,5.62
2017-04-24T04:54:36.005Z,5.62
2017-04-24T04:54:57.715Z,5.66
2017-04-24T04:55:19.423Z,5.62
2017-04-24T04:55:50.772Z,5.56
2017-04-24T04:56:12.476Z,5.53
2017-04-24T04:57:15.082Z,5.59
2017-04-24T04:57:36.808Z,5.59
2017-04-24T04:58:12.834Z,5.62
2017-04-24T04:58:35.223Z,5.68
2017-04-24T04:58:56.926Z,5.65
2017-04-24T04:59:23.405Z,5.55
2017-04-24T04:59:45.203Z,5.59
2017-04-24T05:00:11.692Z,5.62
2017-04-24T05:00:33.410Z,5.43
2017-04-24T05:01:04.669Z,5.40
2017-04-24T05:01:26.439Z,5.42
2017-04-24T05:01:57.703Z,5.48
2017-04-24T05:02:33.763Z,5.69
2017-04-24T05:02:56.126Z,5.80
2017-04-24T05:03:27.387Z,5.81
2017-04-24T05:03:49.134Z,5.76
2017-04-24T05:04:10.934Z,5.75
2017-04-24T05:04:37.446Z,5.71
2017-04-24T05:06:16.026Z,5.70
2017-04-24T05:07:23.395Z,5.85
2017-04-24T05:07:45.125Z,5.80
2017-04-24T05:08:16.374Z,5.75
2017-04-24T05:08:38.170Z,5.70
2017-04-24T05:09:04.652Z,5.70
2017-04-24T05:09:26.382Z,5.72
2017-04-24T05:10:28.913Z,5.73
2017-04-24T05:10:50.629Z,5.77
2017-04-24T05:11:26.655Z,5.77
2017-04-24T05:11:49.007Z,5.85
2017-04-24T05:12:25.028Z,5.84
2017-04-24T05:12:47.281Z,5.88
2017-04-24T05:13:09.138Z,5.96
2017-04-24T05:13:45.167Z,5.92
2017-04-24T05:14:07.438Z,5.92
2017-04-24T05:14:38.789Z,5.97
2017-04-24T05:15:00.512Z,5.96
2017-04-24T05:15:27.002Z,6.01
2017-04-24T05:16:20.058Z,5.85
2017-04-24T05:16:46.551Z,5.77
2017-04-24T05:17:08.263Z,5.83
2017-04-24T05:17:29.989Z,5.90
2017-04-24T05:17:56.441Z,5.91
2017-04-24T05:18:18.150Z,5.97
2017-04-24T05:18:54.178Z,5.87
2017-04-24T05:19:16.460Z,5.93
2017-04-24T05:19:47.721Z,6.00
2017-04-24T05:20:09.421Z,6.03
2017-04-24T05:20:35.992Z,6.08
2017-04-24T05:20:57.689Z,6.09
2017-04-24T05:22:00.291Z,6.01
2017-04-24T05:22:22.000Z,5.98
2017-04-24T05:23:29.291Z,6.04
2017-04-24T05:23:51.110Z,6.01
2017-04-24T05:24:12.852Z,6.07
2017-04-24T05:24:34.561Z,6.14
2017-04-24T05:24:56.246Z,6.12
2017-04-24T05:25:18.044Z,6.11
2017-04-24T05:25:39.761Z,6.10
2017-04-24T05:26:01.506Z,6.10
2017-04-24T05:26:23.201Z,6.19
2017-04-24T05:26:45.027Z,6.24
2017-04-24T05:27:06.734Z,6.29
2017-04-24T05:27:28.453Z,6.27
2017-04-24T05:27:50.155Z,6.25
2017-04-24T05:28:11.936Z,6.18
2017-04-24T05:28:38.413Z,6.14
2017-04-24T05:29:00.112Z,6.12
2017-04-24T05:29:22.917Z,6.17
2017-04-24T05:29:49.614Z,6.18
2017-04-24T05:30:11.316Z,6.23
2017-04-24T05:30:37.894Z,6.29
2017-04-24T05:30:59.597Z,6.30
2017-04-24T05:31:26.073Z,6.36
2017-04-24T05:31:47.772Z,6.37
2017-04-24T05:32:14.261Z,6.34
2017-04-24T05:32:35.955Z,6.31
2017-04-24T05:32:57.693Z,6.32
2017-04-24T05:33:19.419Z,6.33
2017-04-24T05:33:41.224Z,6.36
2017-04-24T05:34:17.265Z,6.27
2017-04-24T05:34:39.514Z,6.27
2017-04-24T05:35:01.323Z,6.31
2017-04-24T05:35:27.812Z,6.32
2017-04-24T05:35:49.553Z,6.37
2017-04-24T05:36:16.026Z,6.41
2017-04-24T05:36:37.717Z,6.38
2017-04-24T05:36:59.435Z,6.37
2017-04-24T05:37:35.459Z,6.45
2017-04-24T05:37:57.757Z,6.51
2017-04-24T05:38:29.018Z,6.51
2017-04-24T05:38:50.713Z,6.56